Time,TemperatureF,DewpointF,PressureIn,WindDirection,WindDirectionDegrees,WindSpeedMPH,WindSpeedGustMPH,Humidity,HourlyPrecipIn,Conditions,Clouds,dailyrainin,SolarRadiationWatts/m^2,SoftwareType,DateUTC
2013-12-08 00:08:00,69.3,66.0,30.18,ESE,103,0.0,0.0,90,0.00,,,0.00,0,weatherlink.com 1.10,2013-12-08 05:08:00,
2013-12-08 00:23:00,69.0,66.0,30.18,ESE,103,0.0,0.0,90,0.00,,,0.00,0,weatherlink.com 1.10,2013-12-08 05:23:00,
2013-12-08 00:38:00,68.7,66.0,30.18,ESE,104,0.0,0.0,90,0.00,,,0.00,0,weatherlink.com 1.10,2013-12-08 05:38:00,
2013-12-08 00:53:00,68.3,65.0,30.17,ESE,103,0.0,0.0,90,0.00,,,0.00,0,weatherlink.com 1.10,2013-12-08 05:53:00,
2013-12-08 01:08:00,68.0,65.0,30.17,ESE,103,0.0,0.0,91,0.00,,,0.00,0,weatherlink.com 1.10,2013-12-08 06:08:00,
2013-12-08 01:23:00,67.7,65.0,30.17,ESE,103,0.0,0.0,91,0.00,,,0.00,0,weatherlink.com 1.10,2013-12-08 06:23:00,
2013-12-08 01:38:00,67.4,65.0,30.17,ESE,104,0.0,0.0,91,0.00,,,0.00,0,weatherlink.com 1.10,2013-12-08 06:38:00,
2013-12-08 01:53:00,67.1,65.0,30.16,ESE,103,0.0,0.0,92,0.00,,,0.00,0,weatherlink.com 1.10,2013-12-08 06:53:00,
2013-12-08 02:09:00,66.8,65.0,30.16,ESE,103,0.0,0.0,92,0.00,,,0.00,0,weatherlink.com 1.10,2013-12-08 07:09:00,
2013-12-08 02:24:00,66.4,64.0,30.15,ESE,103,0.0,0.0,92,0.00,,,0.00,0,weatherlink.com 1.10,2013-12-08 07:24:00,
2013-12-08 02:39:00,66.6,64.0,30.15,ESE,103,0.0,0.0,92,0.00,,,0.00,0,weatherlink.com 1.10,2013-12-08 07:39:00,
2013-12-08 02:54:00,66.6,64.0,30.15,ESE,102,0.0,0.0,92,0.00,,,0.00,0,weatherlink.com 1.10,2013-12-08 07:54:00,
2013-12-08 03:09:00,66.3,64.0,30.15,ESE,102,0.0,0.0,93,0.00,,,0.00,0,weatherlink.com 1.10,2013-12-08 08:09:00,
2013-12-08 03:24:00,66.3,64.0,30.15,ESE,103,0.0,0.0,93,0.00,,,0.00,0,weatherlink.com 1.10,2013-12-08 08:24:00,
2013-12-08 03:39:00,66.2,64.0,30.15,ESE,102,0.0,0.0,93,0.00,,,0.00,0,weatherlink.com 1.10,2013-12-08 08:39:00,
2013-12-08 03:54:00,65.9,64.0,30.15,ESE,103,0.0,0.0,93,0.00,,,0.00,0,weatherlink.com 1.10,2013-12-08 08:54:00,
2013-12-08 04:09:00,65.8,64.0,30.15,ESE,103,0.0,0.0,93,0.00,,,0.00,0,weatherlink.com 1.10,2013-12-08 09:09:00,
2013-12-08 04:24:00,65.5,64.0,30.15,ESE,103,0.0,0.0,93,0.00,,,0.00,0,weatherlink.com 1.10,2013-12-08 09:24:00,
2013-12-08 04:39:00,65.6,64.0,30.16,ESE,103,0.0,0.0,93,0.00,,,0.00,0,weatherlink.com 1.10,2013-12-08 09:39:00,
2013-12-08 04:54:00,65.4,63.0,30.16,ESE,104,0.0,0.0,93,0.00,,,0.00,0,weatherlink.com 1.10,2013-12-08 09:54:00,
2013-12-08 05:09:00,65.4,63.0,30.16,ESE,103,0.0,0.0,93,0.00,,,0.00,0,weatherlink.com 1.10,2013-12-08 10:09:00,
2013-12-08 05:24:00,65.2,63.0,30.16,ESE,103,0.0,0.0,93,0.00,,,0.00,0,weatherlink.com 1.10,2013-12-08 10:24:00,
2013-12-08 05:39:00,65.1,63.0,30.16,ESE,103,0.0,0.0,93,0.00,,,0.00,0,weatherlink.com 1.10,2013-12-08 10:39:00,
2013-12-08 05:55:00,64.9,63.0,30.16,ESE,103,0.0,0.0,94,0.00,,,0.00,0,weatherlink.com 1.10,2013-12-08 10:55:00,
2013-12-08 06:09:00,64.6,63.0,30.17,ESE,103,0.0,0.0,94,0.00,,,0.00,0,weatherlink.com 1.10,2013-12-08 11:09:00,
2013-12-08 06:24:00,64.2,62.0,30.17,ESE,103,0.0,0.0,93,0.00,,,0.00,0,weatherlink.com 1.10,2013-12-08 11:24:00,
2013-12-08 06:39:00,64.3,63.0,30.17,ESE,104,0.0,0.0,94,0.00,,,0.00,0,weatherlink.com 1.10,2013-12-08 11:39:00,
2013-12-08 06:54:00,64.2,63.0,30.18,ESE,104,0.0,0.0,94,0.00,,,0.00,0,weatherlink.com 1.10,2013-12-08 11:54:00,
2013-12-08 07:09:00,64.2,63.0,30.18,ESE,104,0.0,0.0,94,0.00,,,0.00,5,weatherlink.com 1.10,2013-12-08 12:09:00,
2013-12-08 07:24:00,64.2,63.0,30.19,ESE,103,0.0,0.0,94,0.00,,,0.00,16,weatherlink.com 1.10,2013-12-08 12:24:00,
2013-12-08 07:39:00,64.2,63.0,30.19,ESE,104,0.0,0.0,94,0.00,,,0.00,25,weatherlink.com 1.10,2013-12-08 12:39:00,
2013-12-08 07:54:00,64.7,63.0,30.20,ESE,102,0.0,0.0,94,0.00,,,0.00,33,weatherlink.com 1.10,2013-12-08 12:54:00,
2013-12-08 08:09:00,65.6,64.0,30.20,ESE,103,0.0,0.0,95,0.00,,,0.00,123,weatherlink.com 1.10,2013-12-08 13:09:00,
2013-12-08 08:24:00,67.0,66.0,30.20,ESE,104,0.0,0.0,95,0.00,,,0.00,186,weatherlink.com 1.10,2013-12-08 13:24:00,
2013-12-08 08:39:00,68.8,67.0,30.20,ESE,103,0.0,0.0,95,0.00,,,0.00,230,weatherlink.com 1.10,2013-12-08 13:39:00,
2013-12-08 08:54:00,70.3,69.0,30.20,ESE,103,0.0,1.0,95,0.00,,,0.00,271,weatherlink.com 1.10,2013-12-08 13:54:00,
2013-12-08 09:09:00,72.7,70.0,30.21,SSE,159,2.0,5.0,91,0.00,,,0.00,323,weatherlink.com 1.10,2013-12-08 14:09:00,
2013-12-08 09:24:00,74.3,70.0,30.21,SSE,152,0.0,2.0,85,0.00,,,0.00,206,weatherlink.com 1.10,2013-12-08 14:24:00,
2013-12-08 09:39:00,76.2,70.0,30.21,SE,126,0.0,5.0,81,0.00,,,0.00,404,weatherlink.com 1.10,2013-12-08 14:39:00,
2013-12-08 09:54:00,77.3,70.0,30.22,SE,141,0.0,5.0,78,0.00,,,0.00,445,weatherlink.com 1.10,2013-12-08 14:54:00,
2013-12-08 10:10:00,78.2,70.0,30.21,East,88,0.0,5.0,76,0.00,,,0.00,499,weatherlink.com 1.10,2013-12-08 15:10:00,
2013-12-08 10:25:00,78.7,70.0,30.22,South,173,5.0,11.0,74,0.00,,,0.00,570,weatherlink.com 1.10,2013-12-08 15:25:00,
2013-12-08 10:40:00,78.5,69.0,30.21,ENE,71,5.0,9.0,73,0.00,,,0.00,125,weatherlink.com 1.10,2013-12-08 15:40:00,
2013-12-08 10:55:00,79.0,69.0,30.21,SSE,148,2.0,11.0,71,0.00,,,0.00,448,weatherlink.com 1.10,2013-12-08 15:55:00,
2013-12-08 11:10:00,78.7,69.0,30.20,SE,134,7.0,11.0,71,0.00,,,0.00,605,weatherlink.com 1.10,2013-12-08 16:10:00,
2013-12-08 11:25:00,80.4,68.0,30.19,ESE,122,0.0,13.0,67,0.00,,,0.00,687,weatherlink.com 1.10,2013-12-08 16:25:00,
2013-12-08 11:40:00,80.9,68.0,30.19,South,172,0.0,7.0,66,0.00,,,0.00,399,weatherlink.com 1.10,2013-12-08 16:40:00,
2013-12-08 11:55:00,81.6,67.0,30.18,SSE,155,2.0,7.0,62,0.00,,,0.00,745,weatherlink.com 1.10,2013-12-08 16:55:00,
2013-12-08 12:10:00,82.0,66.0,30.17,SSE,147,5.0,13.0,59,0.00,,,0.00,673,weatherlink.com 1.10,2013-12-08 17:10:00,
2013-12-08 12:25:00,82.4,65.0,30.16,South,175,4.0,11.0,56,0.00,,,0.00,149,weatherlink.com 1.10,2013-12-08 17:25:00,
2013-12-08 12:40:00,83.2,65.0,30.15,SSE,161,3.0,9.0,54,0.00,,,0.00,712,weatherlink.com 1.10,2013-12-08 17:40:00,
2013-12-08 12:55:00,82.5,65.0,30.14,SSE,156,3.0,11.0,55,0.00,,,0.00,696,weatherlink.com 1.10,2013-12-08 17:55:00,
2013-12-08 13:10:00,82.9,64.0,30.13,SSE,148,6.0,13.0,53,0.00,,,0.00,476,weatherlink.com 1.10,2013-12-08 18:10:00,
2013-12-08 13:25:00,83.3,65.0,30.12,South,190,1.0,10.0,54,0.00,,,0.00,629,weatherlink.com 1.10,2013-12-08 18:25:00,
2013-12-08 13:40:00,83.9,65.0,30.11,SE,124,4.0,11.0,53,0.00,,,0.00,619,weatherlink.com 1.10,2013-12-08 18:40:00,
2013-12-08 13:55:00,83.5,65.0,30.11,SSE,161,2.0,11.0,54,0.00,,,0.00,589,weatherlink.com 1.10,2013-12-08 18:55:00,
2013-12-08 14:10:00,82.9,65.0,30.10,South,172,4.0,7.0,55,0.00,,,0.00,610,weatherlink.com 1.10,2013-12-08 19:10:00,
2013-12-08 14:25:00,83.3,64.0,30.10,SE,142,2.0,8.0,53,0.00,,,0.00,573,weatherlink.com 1.10,2013-12-08 19:25:00,
2013-12-08 14:40:00,83.5,64.0,30.09,SSE,162,0.0,9.0,52,0.00,,,0.00,501,weatherlink.com 1.10,2013-12-08 19:40:00,
2013-12-08 14:55:00,83.5,65.0,30.09,SSE,160,2.0,9.0,53,0.00,,,0.00,466,weatherlink.com 1.10,2013-12-08 19:55:00,
2013-12-08 15:10:00,83.1,64.0,30.09,SE,138,0.0,12.0,52,0.00,,,0.00,438,weatherlink.com 1.10,2013-12-08 20:10:00,
2013-12-08 15:25:00,83.6,65.0,30.09,East,96,1.0,9.0,53,0.00,,,0.00,385,weatherlink.com 1.10,2013-12-08 20:25:00,
2013-12-08 15:40:00,83.4,64.0,30.09,SSE,160,1.0,10.0,52,0.00,,,0.00,343,weatherlink.com 1.10,2013-12-08 20:40:00,
2013-12-08 15:55:00,83.1,64.0,30.09,SSE,161,4.0,9.0,52,0.00,,,0.00,281,weatherlink.com 1.10,2013-12-08 20:55:00,
2013-12-08 16:10:00,82.9,64.0,30.09,SE,141,0.0,8.0,54,0.00,,,0.00,91,weatherlink.com 1.10,2013-12-08 21:10:00,
2013-12-08 16:25:00,82.6,65.0,30.09,ESE,119,5.0,9.0,55,0.00,,,0.00,171,weatherlink.com 1.10,2013-12-08 21:25:00,
2013-12-08 16:40:00,81.9,65.0,30.09,ESE,115,0.0,8.0,57,0.00,,,0.00,42,weatherlink.com 1.10,2013-12-08 21:40:00,
2013-12-08 16:55:00,81.3,64.0,30.09,SSE,149,0.0,8.0,55,0.00,,,0.00,32,weatherlink.com 1.10,2013-12-08 21:55:00,
2013-12-08 17:10:00,80.8,64.0,30.09,SSE,153,0.0,9.0,56,0.00,,,0.00,16,weatherlink.com 1.10,2013-12-08 22:10:00,
2013-12-08 17:25:00,80.0,64.0,30.10,ESE,121,0.0,4.0,58,0.00,,,0.00,7,weatherlink.com 1.10,2013-12-08 22:25:00,
2013-12-08 17:40:00,78.8,66.0,30.10,SE,130,0.0,4.0,65,0.00,,,0.00,0,weatherlink.com 1.10,2013-12-08 22:40:00,
2013-12-08 17:55:00,77.9,67.0,30.11,East,96,0.0,4.0,68,0.00,,,0.00,0,weatherlink.com 1.10,2013-12-08 22:55:00,
2013-12-08 18:10:00,77.1,67.0,30.11,SE,138,0.0,5.0,71,0.00,,,0.00,0,weatherlink.com 1.10,2013-12-08 23:10:00,
2013-12-08 18:25:00,76.4,67.0,30.11,ESE,119,0.0,5.0,73,0.00,,,0.00,0,weatherlink.com 1.10,2013-12-08 23:25:00,
2013-12-08 18:40:00,75.7,67.0,30.12,East,83,2.0,3.0,74,0.00,,,0.00,0,weatherlink.com 1.10,2013-12-08 23:40:00,
2013-12-08 18:55:00,75.1,67.0,30.13,SE,139,0.0,2.0,76,0.00,,,0.00,0,weatherlink.com 1.10,2013-12-08 23:55:00,
2013-12-08 19:10:00,74.6,67.0,30.13,ESE,119,0.0,4.0,77,0.00,,,0.00,0,weatherlink.com 1.10,2013-12-09 00:10:00,
2013-12-08 19:25:00,74.1,67.0,30.13,ESE,123,0.0,4.0,78,0.00,,,0.00,0,weatherlink.com 1.10,2013-12-09 00:25:00,
2013-12-08 19:40:00,73.9,67.0,30.14,ESE,117,0.0,4.0,78,0.00,,,0.00,0,weatherlink.com 1.10,2013-12-09 00:40:00,
2013-12-08 19:55:00,73.7,66.0,30.14,NE,44,5.0,5.0,78,0.00,,,0.00,0,weatherlink.com 1.10,2013-12-09 00:55:00,
2013-12-08 20:10:00,73.4,67.0,30.14,ESE,102,0.0,6.0,79,0.00,,,0.00,0,weatherlink.com 1.10,2013-12-09 01:10:00,
2013-12-08 20:25:00,73.1,67.0,30.15,SSE,163,0.0,4.0,80,0.00,,,0.00,0,weatherlink.com 1.10,2013-12-09 01:25:00,
2013-12-08 20:40:00,72.8,67.0,30.15,SE,126,0.0,4.0,81,0.00,,,0.00,0,weatherlink.com 1.10,2013-12-09 01:40:00,
2013-12-08 20:55:00,72.6,67.0,30.15,East,84,0.0,3.0,82,0.00,,,0.00,0,weatherlink.com 1.10,2013-12-09 01:55:00,
2013-12-08 21:10:00,72.5,67.0,30.15,SE,127,0.0,3.0,82,0.00,,,0.00,0,weatherlink.com 1.10,2013-12-09 02:10:00,
2013-12-08 21:25:00,72.3,67.0,30.15,ESE,109,0.0,4.0,83,0.00,,,0.00,0,weatherlink.com 1.10,2013-12-09 02:25:00,
2013-12-08 21:40:00,72.2,67.0,30.16,ESE,103,0.0,3.0,84,0.00,,,0.00,0,weatherlink.com 1.10,2013-12-09 02:40:00,
2013-12-08 21:55:00,72.1,67.0,30.16,ESE,102,0.0,1.0,85,0.00,,,0.00,0,weatherlink.com 1.10,2013-12-09 02:55:00,
2013-12-08 22:10:00,71.9,67.0,30.16,ESE,120,0.0,3.0,85,0.00,,,0.00,0,weatherlink.com 1.10,2013-12-09 03:10:00,
2013-12-08 22:25:00,71.7,67.0,30.16,SE,128,0.0,3.0,86,0.00,,,0.00,0,weatherlink.com 1.10,2013-12-09 03:25:00,
2013-12-08 22:40:00,71.7,67.0,30.16,SE,139,0.0,5.0,86,0.00,,,0.00,0,weatherlink.com 1.10,2013-12-09 03:40:00,
2013-12-08 22:55:00,71.5,67.0,30.16,ESE,119,1.0,1.0,86,0.00,,,0.00,0,weatherlink.com 1.10,2013-12-09 03:55:00,
2013-12-08 23:10:00,71.2,67.0,30.16,SE,132,0.0,1.0,87,0.00,,,0.00,0,weatherlink.com 1.10,2013-12-09 04:10:00,
2013-12-08 23:25:00,71.0,67.0,30.16,SE,132,0.0,1.0,88,0.00,,,0.00,0,weatherlink.com 1.10,2013-12-09 04:25:00,
2013-12-08 23:40:00,71.0,67.0,30.16,SE,134,0.0,2.0,88,0.00,,,0.00,0,weatherlink.com 1.10,2013-12-09 04:40:00,
2013-12-08 23:55:00,70.8,67.0,30.15,SE,135,0.0,2.0,88,0.00,,,0.00,0,weatherlink.com 1.10,2013-12-09 04:55:00,